Time;durP1;ratioP1;P1;durP2;ratioP2;P2;SDS_P1;SDS_P2;PMS_P1;PMS_P2;Temp;Humidity;BMP_temperature;BMP_pressure;BME280_temperature;BME280_humidity;BME280_pressure;Samples;Min_cycle;Max_cycle;Signal;HPM_P1;HPM_P2
2021/12/23 00:00:06;;;;;;;6.77;4.70;;;13.90;69.30;;;;;;1989492;28;20536;-73
2021/12/23 00:01:05;;;;;;;5.75;4.18;;;13.90;69.00;;;;;;1989215;28;20913;-73
2021/12/23 00:02:05;;;;;;;6.47;3.80;;;13.90;69.00;;;;;;1989334;28;20210;-73
2021/12/23 00:03:04;;;;;;;5.38;3.97;;;14.10;69.40;;;;;;1989228;28;20179;-73
2021/12/23 00:04:02;;;;;;;7.75;4.82;;;13.90;69.00;;;;;;1989248;28;20186;-75
2021/12/23 00:05:01;;;;;;;6.47;4.10;;;14.00;69.10;;;;;;1989317;28;20175;-73
2021/12/23 00:06:00;;;;;;;6.20;4.10;;;14.20;69.30;;;;;;1989176;28;20171;-74
2021/12/23 00:06:58;;;;;;;6.70;4.20;;;14.00;68.90;;;;;;1989246;28;20178;-75
2021/12/23 00:07:58;;;;;;;6.93;4.10;;;14.00;68.70;;;;;;1989379;28;20409;-72
2021/12/23 00:08:59;;;;;;;8.73;4.55;;;14.00;68.60;;;;;;1989204;28;20225;-76
2021/12/23 00:10:05;;;;;;;8.85;5.00;;;14.00;68.60;;;;;;1988542;28;20174;-73
2021/12/23 00:11:03;;;;;;;6.68;4.40;;;13.90;68.50;;;;;;1989004;28;20165;-73
2021/12/23 00:12:02;;;;;;;6.10;4.70;;;13.90;68.50;;;;;;1989231;28;20233;-72
2021/12/23 00:13:01;;;;;;;5.70;3.93;;;13.90;68.20;;;;;;1989283;28;20266;-74
2021/12/23 00:14:08;;;;;;;8.90;4.60;;;13.90;68.50;;;;;;1989271;28;20281;-73
2021/12/23 00:15:16;;;;;;;6.53;4.38;;;13.80;68.10;;;;;;1989410;28;20165;-74
2021/12/23 00:16:19;;;;;;;9.88;4.35;;;13.80;68.30;;;;;;1989286;28;20163;-74
2021/12/23 00:19:37;;;;;;;8.90;4.30;;;13.70;68.40;;;;;;1989335;28;20166;-73
2021/12/23 00:24:08;;;;;;;10.23;5.47;;;13.60;68.30;;;;;;1989509;28;20195;-74
2021/12/23 00:25:07;;;;;;;7.03;4.70;;;13.60;68.40;;;;;;1989145;28;20170;-75
2021/12/23 00:26:05;;;;;;;6.30;4.53;;;13.70;68.30;;;;;;1989087;28;20250;-74
2021/12/23 00:27:04;;;;;;;7.80;4.90;;;13.70;68.40;;;;;;1989298;28;20417;-73
2021/12/23 00:28:03;;;;;;;5.07;4.17;;;13.70;68.60;;;;;;1989094;28;20180;-73
2021/12/23 00:29:02;;;;;;;7.07;4.50;;;13.70;68.60;;;;;;1989150;28;20406;-73
2021/12/23 00:30:01;;;;;;;7.40;4.83;;;13.70;68.50;;;;;;1989123;28;20182;-74
2021/12/23 00:31:00;;;;;;;5.57;4.23;;;13.70;68.60;;;;;;1989256;28;20246;-74
2021/12/23 00:31:59;;;;;;;6.70;4.50;;;13.70;68.70;;;;;;1989004;28;20222;-74
2021/12/23 00:32:58;;;;;;;7.45;4.60;;;13.80;68.40;;;;;;1989123;28;20249;-74
2021/12/23 00:33:56;;;;;;;4.77;3.80;;;13.70;68.60;;;;;;1989072;28;20201;-73
2021/12/23 00:34:55;;;;;;;8.47;5.60;;;13.70;68.80;;;;;;1989147;28;20186;-73
2021/12/23 00:35:54;;;;;;;9.93;4.50;;;13.70;68.60;;;;;;1989186;28;20182;-74
2021/12/23 00:36:55;;;;;;;7.57;4.65;;;13.70;68.60;;;;;;1988970;28;20186;-74
2021/12/23 00:38:01;;;;;;;6.13;3.92;;;13.70;68.70;;;;;;1989029;28;20171;-73
2021/12/23 00:39:02;;;;;;;5.53;4.13;;;13.70;68.90;;;;;;1989151;28;20214;-73
2021/12/23 00:40:00;;;;;;;7.80;4.32;;;13.80;68.60;;;;;;1989030;28;20250;-74
2021/12/23 00:41:01;;;;;;;8.17;4.73;;;13.80;68.60;;;;;;1988978;28;20198;-73
2021/12/23 00:42:06;;;;;;;5.38;3.60;;;13.90;68.70;;;;;;1989148;28;20194;-73
2021/12/23 00:43:04;;;;;;;6.65;4.75;;;13.90;68.50;;;;;;1989129;28;20171;-74
2021/12/23 00:44:03;;;;;;;7.60;4.00;;;13.80;68.50;;;;;;1989201;28;20318;-74
2021/12/23 00:45:03;;;;;;;6.73;4.30;;;13.80;68.80;;;;;;1988982;28;20233;-73
2021/12/23 00:46:06;;;;;;;7.13;4.25;;;13.90;68.70;;;;;;1988868;28;20197;-74
2021/12/23 00:47:05;;;;;;;5.50;4.10;;;13.90;68.60;;;;;;1989082;28;20253;-74
2021/12/23 00:48:05;;;;;;;6.43;4.87;;;13.90;68.70;;;;;;1989074;28;20175;-74
2021/12/23 00:49:05;;;;;;;5.65;3.88;;;13.90;68.70;;;;;;1989029;28;20452;-74
2021/12/23 00:50:05;;;;;;;7.07;4.57;;;13.90;68.70;;;;;;1988941;28;20261;-74
2021/12/23 00:51:03;;;;;;;6.55;4.30;;;13.90;68.80;;;;;;1989037;28;20194;-74
2021/12/23 00:52:03;;;;;;;6.30;4.30;;;13.90;68.90;;;;;;1989100;28;20179;-73
2021/12/23 00:53:06;;;;;;;6.00;4.55;;;13.90;68.90;;;;;;1989173;28;20414;-73
2021/12/23 00:54:05;;;;;;;5.25;4.13;;;13.90;69.00;;;;;;1988981;28;20253;-74
2021/12/23 00:55:06;;;;;;;6.97;4.80;;;13.90;69.20;;;;;;1988963;28;20634;-74
2021/12/23 00:56:05;;;;;;;7.65;4.72;;;13.90;69.10;;;;;;1988836;28;20181;-75
2021/12/23 00:57:04;;;;;;;8.38;4.05;;;13.90;69.20;;;;;;1988442;28;20189;-75
2021/12/23 00:58:03;;;;;;;7.40;3.93;;;13.90;69.30;;;;;;1988514;28;20265;-75
2021/12/23 00:59:06;;;;;;;7.68;4.60;;;13.90;69.30;;;;;;1989165;28;20255;-74
2021/12/23 01:00:11;;;;;;;6.45;3.78;;;13.90;69.30;;;;;;1989117;28;20201;-75
2021/12/23 01:01:09;;;;;;;5.22;4.03;;;13.90;69.20;;;;;;1988402;28;20692;-74
2021/12/23 01:02:10;;;;;;;8.23;4.27;;;13.90;69.20;;;;;;1988434;28;20171;-75
2021/12/23 01:03:08;;;;;;;6.85;4.53;;;13.80;69.30;;;;;;1989123;28;20232;-74
2021/12/23 01:04:07;;;;;;;7.33;5.03;;;13.90;69.30;;;;;;1989089;28;20183;-74
2021/12/23 01:05:06;;;;;;;6.13;3.93;;;13.90;69.30;;;;;;1988961;28;20210;-75
2021/12/23 01:06:04;;;;;;;7.50;4.90;;;13.90;69.30;;;;;;1988941;28;20584;-74
2021/12/23 01:07:03;;;;;;;6.17;4.20;;;14.00;69.50;;;;;;1989051;28;20173;-73
2021/12/23 01:08:02;;;;;;;10.70;5.40;;;13.80;69.30;;;;;;1989044;28;20174;-75
2021/12/23 01:09:00;;;;;;;5.40;3.40;;;13.90;69.60;;;;;;1988927;28;20217;-74
2021/12/23 01:09:59;;;;;;;9.07;4.97;;;13.90;69.80;;;;;;1988927;28;20171;-75
2021/12/23 01:10:59;;;;;;;8.07;4.67;;;13.90;69.90;;;;;;1989074;28;20181;-74
2021/12/23 01:11:58;;;;;;;7.03;4.40;;;13.90;69.80;;;;;;1988950;28;20170;-74
2021/12/23 01:13:02;;;;;;;6.80;4.10;;;13.90;69.90;;;;;;1989136;28;20183;-75
2021/12/23 01:14:24;;;;;;;7.97;4.60;;;13.90;70.00;;;;;;1988957;28;20174;-73
2021/12/23 01:16:37;;;;;;;8.90;4.57;;;13.90;70.20;;;;;;1988952;28;20195;-74
2021/12/23 01:17:53;;;;;;;5.65;3.97;;;13.90;70.10;;;;;;1989028;28;20670;-74
2021/12/23 01:18:55;;;;;;;5.47;4.20;;;13.90;70.20;;;;;;1988946;28;20147;-74
2021/12/23 01:19:55;;;;;;;5.78;4.30;;;13.90;70.30;;;;;;1988851;28;20166;-73
2021/12/23 01:21:03;;;;;;;7.43;4.13;;;13.90;70.10;;;;;;1988881;28;20631;-74
2021/12/23 01:22:02;;;;;;;6.40;4.15;;;13.90;70.10;;;;;;1989116;28;20162;-73
2021/12/23 01:23:04;;;;;;;7.47;4.57;;;13.80;70.10;;;;;;1989069;28;20177;-74
2021/12/23 01:24:03;;;;;;;6.72;4.55;;;13.90;70.30;;;;;;1988810;28;20254;-73
2021/12/23 01:25:02;;;;;;;7.37;4.53;;;13.90;70.40;;;;;;1988925;28;20225;-74
2021/12/23 01:26:00;;;;;;;5.47;4.10;;;13.90;70.60;;;;;;1988867;28;20194;-74
2021/12/23 01:27:00;;;;;;;6.90;4.83;;;13.90;70.50;;;;;;1989046;28;20194;-74
2021/12/23 01:27:59;;;;;;;8.38;4.22;;;13.90;70.40;;;;;;1988283;28;20414;-74
2021/12/23 01:28:58;;;;;;;6.93;4.70;;;13.90;70.40;;;;;;1988381;28;20661;-74
2021/12/23 01:30:01;;;;;;;4.78;3.45;;;13.90;70.50;;;;;;1988852;28;20185;-73
2021/12/23 01:31:00;;;;;;;5.20;3.90;;;13.90;70.50;;;;;;1988913;28;20273;-73
2021/12/23 01:32:02;;;;;;;5.20;3.60;;;13.90;70.80;;;;;;1988935;28;20226;-74
2021/12/23 01:33:03;;;;;;;5.55;3.72;;;13.90;70.90;;;;;;1988978;28;20172;-73
2021/12/23 01:34:02;;;;;;;6.47;3.80;;;13.90;70.90;;;;;;1988912;28;20178;-74
2021/12/23 01:35:01;;;;;;;7.20;3.90;;;13.90;71.10;;;;;;1988394;28;20197;-73
2021/12/23 01:35:59;;;;;;;5.53;3.97;;;13.90;71.20;;;;;;1988326;28;20178;-74
2021/12/23 01:36:58;;;;;;;5.60;4.00;;;13.90;74.10;;;;;;1988820;28;20170;-74
2021/12/23 01:37:57;;;;;;;9.20;4.63;;;;;;;;;;1989066;28;20445;-74
2021/12/23 01:38:56;;;;;;;5.70;4.00;;;13.80;76.20;;;;;;1989008;28;20185;-74
2021/12/23 01:39:55;;;;;;;8.67;3.90;;;;;;;;;;1988230;28;20933;-74
2021/12/23 01:40:53;;;;;;;5.43;4.13;;;13.90;70.50;;;;;;1988463;28;20429;-74
2021/12/23 01:41:52;;;;;;;6.50;3.60;;;13.90;71.40;;;;;;1988866;28;20398;-74
2021/12/23 01:42:51;;;;;;;6.77;4.37;;;13.90;71.00;;;;;;1988874;28;20294;-75
2021/12/23 01:43:51;;;;;;;8.25;3.72;;;13.90;71.00;;;;;;1988932;28;20546;-74
2021/12/23 01:44:50;;;;;;;6.55;4.35;;;13.90;71.80;;;;;;1988824;28;20192;-74
2021/12/23 01:45:50;;;;;;;7.03;3.87;;;13.80;71.30;;;;;;1988945;28;20201;-74
2021/12/23 01:46:48;;;;;;;5.95;3.75;;;13.90;71.40;;;;;;1988799;28;20637;-74
2021/12/23 01:47:48;;;;;;;6.87;4.07;;;13.90;71.50;;;;;;1988947;28;20179;-74
2021/12/23 01:48:46;;;;;;;6.05;4.20;;;13.90;71.30;;;;;;1988991;28;20222;-74
2021/12/23 01:49:45;;;;;;;6.70;4.60;;;13.90;71.00;;;;;;1988845;28;20202;-73
2021/12/23 01:50:44;;;;;;;5.40;3.70;;;13.80;71.10;;;;;;1988874;28;20185;-74
2021/12/23 01:51:43;;;;;;;4.63;3.80;;;13.90;71.10;;;;;;1989554;28;20175;-73
2021/12/23 01:52:41;;;;;;;7.77;4.00;;;13.90;71.90;;;;;;1990377;28;20187;-74
2021/12/23 01:53:40;;;;;;;5.30;4.27;;;13.90;71.40;;;;;;1990628;28;20222;-74
2021/12/23 01:54:38;;;;;;;4.80;3.73;;;13.80;71.30;;;;;;1989801;28;20171;-75
2021/12/23 01:55:38;;;;;;;7.20;4.33;;;13.80;71.20;;;;;;1990094;28;20547;-74
2021/12/23 01:56:36;;;;;;;5.28;3.50;;;13.80;71.40;;;;;;1990163;28;20198;-74
2021/12/23 01:57:36;;;;;;;4.50;3.60;;;13.80;71.20;;;;;;1990471;28;20234;-74
2021/12/23 01:58:39;;;;;;;6.55;4.57;;;13.80;71.40;;;;;;1990313;28;20159;-74
2021/12/23 01:59:37;;;;;;;5.80;3.78;;;13.80;71.40;;;;;;1988765;28;20193;-74
2021/12/23 02:00:37;;;;;;;4.13;3.13;;;13.90;71.30;;;;;;1988850;28;20166;-75
2021/12/23 02:01:41;;;;;;;5.32;3.63;;;14.20;71.90;;;;;;1988740;28;20681;-74
2021/12/23 02:02:40;;;;;;;7.05;4.00;;;13.90;71.20;;;;;;1988863;28;20182;-74
2021/12/23 02:03:40;;;;;;;7.60;4.28;;;13.90;71.50;;;;;;1988957;28;20175;-75
2021/12/23 02:04:38;;;;;;;7.22;4.30;;;13.90;71.50;;;;;;1988890;28;20660;-74
2021/12/23 02:05:37;;;;;;;5.10;3.60;;;13.90;71.50;;;;;;1988826;28;20260;-75
2021/12/23 02:06:36;;;;;;;6.77;4.50;;;13.90;71.40;;;;;;1988840;28;20222;-74
2021/12/23 02:07:35;;;;;;;4.93;3.73;;;13.90;71.40;;;;;;1988850;28;20177;-73
2021/12/23 02:08:35;;;;;;;7.05;4.20;;;13.90;71.40;;;;;;1988930;28;20182;-75
2021/12/23 02:09:33;;;;;;;5.78;3.85;;;13.90;71.40;;;;;;1989057;28;20221;-74
2021/12/23 02:10:32;;;;;;;5.83;3.80;;;13.90;71.60;;;;;;1988223;28;20178;-74
2021/12/23 02:11:31;;;;;;;7.73;4.40;;;13.90;71.50;;;;;;1988412;28;20183;-74
2021/12/23 02:12:29;;;;;;;5.53;3.90;;;13.90;71.60;;;;;;1988778;28;20167;-73
2021/12/23 02:13:28;;;;;;;5.50;4.07;;;13.90;71.60;;;;;;1988858;28;20197;-74
2021/12/23 02:14:27;;;;;;;7.83;3.80;;;13.90;71.40;;;;;;1988814;28;20681;-75
2021/12/23 02:15:26;;;;;;;4.95;3.58;;;13.90;71.50;;;;;;1988752;28;20417;-74
2021/12/23 02:16:25;;;;;;;5.60;4.23;;;13.90;71.50;;;;;;1988777;28;20206;-74
2021/12/23 02:17:23;;;;;;;6.33;3.80;;;13.90;71.50;;;;;;1988796;28;20426;-74
2021/12/23 02:18:22;;;;;;;6.27;3.50;;;13.90;71.70;;;;;;1988798;28;20634;-75
2021/12/23 02:19:21;;;;;;;6.33;3.80;;;13.90;71.70;;;;;;1988773;28;20535;-75
2021/12/23 02:20:23;;;;;;;5.68;4.00;;;14.00;71.90;;;;;;1988761;28;20177;-74
2021/12/23 02:21:22;;;;;;;5.95;4.47;;;14.00;71.70;;;;;;1989303;28;20297;-74
2021/12/23 02:22:20;;;;;;;6.30;3.97;;;14.20;71.70;;;;;;1989557;28;20538;-74
2021/12/23 02:23:20;;;;;;;5.00;3.67;;;14.10;71.80;;;;;;1990192;28;20638;-75
2021/12/23 02:24:19;;;;;;;6.85;4.05;;;14.00;71.60;;;;;;1990044;28;20175;-74
2021/12/23 02:25:17;;;;;;;5.40;3.97;;;14.00;71.20;;;;;;1990173;28;20233;-73
2021/12/23 02:26:16;;;;;;;6.10;3.67;;;14.00;71.40;;;;;;1990105;28;20436;-74
2021/12/23 02:27:14;;;;;;;6.30;3.70;;;13.90;71.20;;;;;;1990191;28;20765;-75
2021/12/23 02:28:18;;;;;;;6.40;4.20;;;13.90;71.50;;;;;;1990246;28;20696;-74
2021/12/23 02:29:16;;;;;;;6.07;4.35;;;13.90;71.20;;;;;;1990406;28;20198;-74
2021/12/23 02:30:22;;;;;;;8.70;4.23;;;13.80;71.20;;;;;;1990389;28;20517;-74
2021/12/23 02:31:21;;;;;;;6.72;4.70;;;13.80;71.40;;;;;;1990221;28;20174;-74
2021/12/23 02:32:19;;;;;;;6.03;4.00;;;13.80;71.20;;;;;;1990017;28;20238;-73
2021/12/23 02:33:23;;;;;;;8.17;4.20;;;13.70;71.20;;;;;;1990409;28;20202;-74
2021/12/23 02:34:23;;;;;;;6.28;3.85;;;13.70;71.00;;;;;;1990437;28;20256;-74
2021/12/23 02:35:23;;;;;;;7.47;4.85;;;13.70;70.80;;;;;;1990300;28;20175;-75
2021/12/23 02:36:22;;;;;;;5.70;3.65;;;13.70;70.80;;;;;;1989548;28;20236;-76
2021/12/23 02:37:21;;;;;;;6.20;4.40;;;13.70;71.10;;;;;;1981903;29;20183;-74
2021/12/23 02:38:19;;;;;;;6.43;3.93;;;13.70;71.00;;;;;;1988919;28;20178;-74
2021/12/23 02:39:19;;;;;;;5.93;4.00;;;13.60;70.60;;;;;;1990248;28;20187;-74
2021/12/23 02:40:28;;;;;;;6.95;4.40;;;13.60;71.00;;;;;;1990349;28;20509;-75
2021/12/23 02:41:26;;;;;;;6.05;4.18;;;13.60;70.70;;;;;;1990494;28;20199;-74
2021/12/23 02:42:25;;;;;;;5.23;3.63;;;13.60;70.80;;;;;;1992564;28;20175;-74
2021/12/23 02:43:26;;;;;;;5.27;3.90;;;13.60;70.90;;;;;;1997183;28;20178;-74
2021/12/23 02:44:24;;;;;;;6.22;4.18;;;13.60;70.90;;;;;;1998181;28;20215;-74
2021/12/23 02:45:23;;;;;;;6.57;3.90;;;13.60;71.00;;;;;;1998883;28;20199;-71
2021/12/23 02:46:21;;;;;;;6.77;3.70;;;13.60;71.20;;;;;;1998935;28;20251;-73
2021/12/23 02:47:20;;;;;;;6.80;4.10;;;13.60;70.90;;;;;;1999337;28;20163;-72
2021/12/23 02:48:22;;;;;;;7.50;3.97;;;13.70;71.00;;;;;;1999356;28;20334;-72
2021/12/23 02:49:21;;;;;;;6.93;4.80;;;13.70;71.30;;;;;;1998409;28;20433;-74
2021/12/23 02:50:19;;;;;;;4.70;3.40;;;13.70;71.00;;;;;;1997242;28;20178;-73
2021/12/23 02:51:18;;;;;;;4.27;3.20;;;13.70;70.90;;;;;;1995959;28;20205;-74
2021/12/23 02:52:17;;;;;;;6.00;3.43;;;13.70;71.00;;;;;;1995029;28;20179;-73
2021/12/23 02:53:16;;;;;;;7.15;4.60;;;13.70;71.00;;;;;;1995253;28;20174;-73
2021/12/23 02:54:14;;;;;;;6.30;3.50;;;13.70;71.00;;;;;;1994145;28;20178;-74
2021/12/23 02:55:16;;;;;;;4.90;3.37;;;13.70;71.00;;;;;;1993485;28;20174;-74
2021/12/23 02:56:15;;;;;;;5.57;3.70;;;13.70;70.80;;;;;;1995689;28;20616;-72
2021/12/23 02:57:14;;;;;;;5.40;3.87;;;13.80;70.90;;;;;;1999062;28;20186;-73
2021/12/23 02:58:13;;;;;;;6.27;3.67;;;13.70;70.80;;;;;;1998591;28;20245;-72
2021/12/23 02:59:11;;;;;;;4.23;3.70;;;13.70;71.00;;;;;;1998302;28;20170;-73
2021/12/23 03:00:12;;;;;;;5.57;4.10;;;13.80;70.90;;;;;;1998060;28;20398;-72
2021/12/23 03:01:11;;;;;;;4.60;4.20;;;13.70;70.80;;;;;;1997877;28;20206;-73
2021/12/23 03:02:09;;;;;;;4.20;3.30;;;13.80;71.00;;;;;;1998387;28;20191;-72
2021/12/23 03:03:08;;;;;;;7.80;3.83;;;13.80;71.00;;;;;;1998109;28;20421;-74
2021/12/23 03:04:06;;;;;;;4.53;3.40;;;13.90;71.00;;;;;;1990251;29;20185;-73
2021/12/23 03:05:06;;;;;;;8.80;4.90;;;13.80;70.90;;;;;;1997731;28;20174;-72
2021/12/23 03:06:05;;;;;;;5.57;3.60;;;13.80;71.50;;;;;;1998134;28;20174;-75
2021/12/23 03:07:04;;;;;;;8.73;4.17;;;13.80;71.20;;;;;;1997701;28;20217;-73
2021/12/23 03:08:03;;;;;;;4.60;3.67;;;13.80;71.10;;;;;;1996318;28;20189;-74
2021/12/23 03:09:04;;;;;;;6.30;3.70;;;13.80;71.40;;;;;;1995924;28;20182;-74
2021/12/23 03:10:05;;;;;;;5.53;3.63;;;13.90;71.30;;;;;;1995792;28;20171;-74
2021/12/23 03:11:05;;;;;;;6.55;3.60;;;13.90;71.20;;;;;;1995926;28;20525;-74
2021/12/23 03:12:04;;;;;;;6.32;4.53;;;14.10;71.30;;;;;;1995564;28;20185;-73
2021/12/23 03:13:03;;;;;;;7.03;4.33;;;13.90;70.90;;;;;;1993505;28;20186;-74
2021/12/23 03:14:01;;;;;;;5.30;4.23;;;13.90;70.70;;;;;;1989820;28;20455;-74
2021/12/23 03:15:01;;;;;;;5.77;3.80;;;13.80;71.10;;;;;;1989856;28;20201;-74
2021/12/23 03:16:00;;;;;;;6.20;3.80;;;13.80;70.70;;;;;;1989681;28;20410;-74
2021/12/23 03:16:59;;;;;;;5.28;3.75;;;13.80;70.90;;;;;;1989811;28;20236;-73
2021/12/23 03:17:57;;;;;;;4.00;3.20;;;13.90;71.00;;;;;;1989730;28;20233;-74
2021/12/23 03:18:58;;;;;;;5.33;3.90;;;13.90;70.90;;;;;;1989830;28;20246;-74
2021/12/23 03:19:57;;;;;;;6.82;4.28;;;13.90;70.80;;;;;;1989834;28;20587;-74
2021/12/23 03:20:56;;;;;;;5.37;4.07;;;13.90;70.70;;;;;;1989797;28;20194;-75
2021/12/23 03:21:54;;;;;;;5.43;4.10;;;13.90;70.90;;;;;;1989742;28;20634;-74
2021/12/23 03:22:53;;;;;;;5.20;3.57;;;13.90;70.80;;;;;;1989884;28;20175;-73
2021/12/23 03:23:53;;;;;;;6.07;3.40;;;13.90;70.80;;;;;;1989753;28;20202;-75
2021/12/23 03:24:51;;;;;;;6.13;3.60;;;13.90;71.00;;;;;;1989805;28;20630;-76
2021/12/23 03:25:50;;;;;;;4.93;3.47;;;13.90;70.90;;;;;;1989781;28;20174;-74
2021/12/23 03:26:49;;;;;;;6.47;3.90;;;13.90;71.00;;;;;;1989808;28;20187;-74
2021/12/23 03:27:47;;;;;;;4.03;3.37;;;13.80;70.80;;;;;;1989653;28;20182;-74
2021/12/23 03:28:46;;;;;;;5.27;3.40;;;13.80;71.00;;;;;;1990030;28;20175;-74
2021/12/23 03:29:44;;;;;;;5.40;3.70;;;13.80;71.20;;;;;;1989772;28;20174;-74
2021/12/23 03:30:44;;;;;;;5.87;4.17;;;13.90;71.00;;;;;;1989872;28;20174;-72
2021/12/23 03:31:43;;;;;;;5.60;4.00;;;13.80;70.90;;;;;;1989546;28;20521;-72
2021/12/23 03:32:41;;;;;;;6.87;4.03;;;13.80;70.80;;;;;;1988685;28;20163;-73
2021/12/23 03:33:40;;;;;;;8.43;3.90;;;13.80;70.80;;;;;;1989794;28;20171;-73
2021/12/23 03:34:38;;;;;;;5.73;3.80;;;13.80;70.70;;;;;;1989969;28;20174;-73
2021/12/23 03:35:37;;;;;;;5.63;3.67;;;13.80;71.20;;;;;;1989649;28;20671;-72
2021/12/23 03:36:36;;;;;;;5.27;3.60;;;13.80;71.00;;;;;;1989784;28;20273;-72
2021/12/23 03:37:34;;;;;;;4.97;3.20;;;13.80;70.80;;;;;;1989726;28;20213;-72
2021/12/23 03:38:33;;;;;;;7.10;3.97;;;13.80;71.10;;;;;;1989693;28;20175;-72
2021/12/23 03:39:32;;;;;;;6.60;3.87;;;13.80;71.10;;;;;;1989982;28;20627;-74
2021/12/23 03:40:31;;;;;;;8.00;4.17;;;13.80;71.10;;;;;;1990381;28;20226;-74
2021/12/23 03:41:30;;;;;;;4.70;4.07;;;13.80;71.10;;;;;;1990609;28;20686;-73
2021/12/23 03:42:29;;;;;;;5.45;3.95;;;13.80;71.20;;;;;;1997214;28;20178;-73
2021/12/23 03:43:29;;;;;;;5.57;4.10;;;13.90;71.50;;;;;;1997696;28;20179;-71
2021/12/23 03:44:27;;;;;;;5.38;3.47;;;13.90;71.50;;;;;;1997655;28;20176;-73
2021/12/23 03:45:26;;;;;;;5.57;3.57;;;13.70;71.10;;;;;;1997657;28;20193;-73
2021/12/23 03:46:24;;;;;;;5.40;3.57;;;13.90;71.40;;;;;;1997940;28;20278;-70
2021/12/23 03:47:23;;;;;;;7.83;4.30;;;13.90;71.40;;;;;;1998416;28;20196;-71
2021/12/23 03:48:21;;;;;;;6.10;3.73;;;13.90;71.20;;;;;;1998202;28;20178;-72
2021/12/23 03:49:20;;;;;;;5.60;3.87;;;13.90;71.40;;;;;;1998471;28;20213;-72
2021/12/23 03:50:21;;;;;;;6.43;4.07;;;13.80;71.30;;;;;;1997714;28;20258;-73
2021/12/23 03:51:19;;;;;;;7.43;4.03;;;13.90;71.50;;;;;;1997722;28;20182;-70
2021/12/23 03:52:18;;;;;;;4.47;3.23;;;13.80;71.50;;;;;;1998060;28;20194;-73
2021/12/23 03:53:17;;;;;;;5.40;3.60;;;13.80;71.40;;;;;;1997211;28;20277;-72
2021/12/23 03:54:16;;;;;;;4.75;3.67;;;13.90;71.50;;;;;;1996606;28;20180;-72
2021/12/23 03:55:16;;;;;;;4.80;3.10;;;13.90;71.40;;;;;;1995396;28;20182;-73
2021/12/23 03:56:18;;;;;;;5.38;3.15;;;13.90;71.60;;;;;;1996762;28;20536;-74
2021/12/23 03:57:17;;;;;;;5.00;3.88;;;13.90;71.60;;;;;;1996498;28;20189;-73
2021/12/23 03:58:15;;;;;;;7.07;4.10;;;13.90;71.50;;;;;;1994255;28;20186;-73
2021/12/23 03:59:14;;;;;;;3.37;3.00;;;13.90;71.40;;;;;;1994151;28;20178;-73
2021/12/23 04:00:17;;;;;;;7.82;3.92;;;13.80;71.30;;;;;;1996209;28;20209;-73
2021/12/23 04:01:15;;;;;;;5.63;3.85;;;13.80;71.40;;;;;;1994600;28;20264;-73
2021/12/23 04:02:14;;;;;;;5.97;4.30;;;13.80;71.50;;;;;;1992719;28;20202;-72
2021/12/23 04:03:13;;;;;;;6.17;3.77;;;13.80;71.30;;;;;;1994622;28;20238;-72
2021/12/23 04:04:12;;;;;;;5.07;3.80;;;13.80;71.50;;;;;;1996915;28;20425;-73
2021/12/23 04:05:11;;;;;;;5.70;3.43;;;13.80;71.40;;;;;;1997134;28;20405;-72
2021/12/23 04:06:10;;;;;;;4.32;3.05;;;13.90;71.80;;;;;;1994644;28;20190;-72
2021/12/23 04:07:08;;;;;;;5.40;3.00;;;13.90;72.20;;;;;;1996077;28;20209;-72
2021/12/23 04:08:07;;;;;;;5.73;3.40;;;13.90;72.00;;;;;;1996896;28;20188;-73
2021/12/23 04:09:06;;;;;;;5.97;3.43;;;13.90;72.20;;;;;;1995254;28;20187;-74
2021/12/23 04:10:07;;;;;;;4.83;3.77;;;13.90;72.10;;;;;;1989343;28;20268;-72
2021/12/23 04:11:05;;;;;;;6.63;4.20;;;13.90;72.10;;;;;;1989256;28;20179;-71
2021/12/23 04:12:04;;;;;;;4.70;3.23;;;13.80;72.00;;;;;;1989360;28;20183;-74
2021/12/23 04:13:03;;;;;;;4.07;3.57;;;13.80;72.20;;;;;;1989192;28;20170;-73
2021/12/23 04:14:02;;;;;;;4.33;3.40;;;13.90;72.40;;;;;;1989313;28;20402;-72
2021/12/23 04:15:00;;;;;;;5.80;3.43;;;13.80;72.40;;;;;;1989276;28;20236;-72
2021/12/23 04:16:02;;;;;;;9.90;3.60;;;13.90;72.40;;;;;;1989320;28;20522;-72
2021/12/23 04:17:00;;;;;;;4.95;3.58;;;13.90;72.30;;;;;;1989211;28;20178;-73
2021/12/23 04:17:59;;;;;;;5.03;3.63;;;13.90;72.40;;;;;;1989230;28;20550;-73
2021/12/23 04:18:57;;;;;;;4.93;3.50;;;13.80;72.20;;;;;;1989312;28;20646;-74
2021/12/23 04:20:09;;;;;;;4.23;3.60;;;13.80;72.10;;;;;;1989335;28;20171;-73
2021/12/23 04:21:08;;;;;;;4.53;3.70;;;13.80;72.30;;;;;;1989325;28;20198;-72
2021/12/23 04:22:06;;;;;;;4.57;3.70;;;13.80;72.30;;;;;;1989418;28;20174;-72
2021/12/23 04:23:04;;;;;;;5.17;3.60;;;13.80;72.20;;;;;;1989289;28;20229;-72
2021/12/23 04:24:03;;;;;;;7.23;4.10;;;13.90;72.40;;;;;;1989342;28;20229;-73
2021/12/23 04:25:02;;;;;;;4.90;3.63;;;13.90;72.20;;;;;;1989284;28;20338;-73
2021/12/23 04:26:01;;;;;;;5.73;3.47;;;13.90;72.10;;;;;;1989195;28;20406;-74
2021/12/23 04:26:59;;;;;;;9.80;3.80;;;13.90;72.30;;;;;;1989145;28;20177;-73
2021/12/23 04:28:01;;;;;;;5.57;4.03;;;13.80;72.30;;;;;;1989384;28;20179;-73
2021/12/23 04:29:00;;;;;;;5.40;3.60;;;13.90;72.40;;;;;;1989274;28;20570;-73
2021/12/23 04:29:58;;;;;;;9.00;3.97;;;13.90;72.30;;;;;;1989253;28;20170;-72
2021/12/23 04:30:57;;;;;;;5.10;3.60;;;13.90;72.30;;;;;;1989319;28;20190;-73
2021/12/23 04:31:56;;;;;;;5.67;3.87;;;13.80;72.30;;;;;;1989088;28;20226;-73
2021/12/23 04:32:55;;;;;;;6.30;3.30;;;13.80;72.20;;;;;;1989201;28;20245;-72
2021/12/23 04:33:54;;;;;;;5.75;3.70;;;14.00;72.40;;;;;;1989000;28;20418;-73
2021/12/23 04:34:53;;;;;;;5.00;3.65;;;13.90;72.40;;;;;;1989090;28;20174;-73
2021/12/23 04:35:51;;;;;;;5.60;4.10;;;13.90;72.40;;;;;;1988467;28;20219;-73
2021/12/23 04:36:50;;;;;;;4.93;3.53;;;13.90;72.30;;;;;;1988587;28;20278;-75
2021/12/23 04:37:48;;;;;;;5.30;3.83;;;13.90;72.20;;;;;;1989034;28;20166;-73
2021/12/23 04:38:47;;;;;;;6.63;3.93;;;13.90;72.30;;;;;;1989104;28;20181;-75
2021/12/23 04:39:46;;;;;;;5.00;3.50;;;13.90;72.20;;;;;;1989153;28;20174;-74
2021/12/23 04:40:44;;;;;;;5.00;3.70;;;14.00;72.20;;;;;;1989048;28;20398;-74
2021/12/23 04:41:43;;;;;;;9.00;3.67;;;14.00;72.00;;;;;;1989206;28;20198;-75
2021/12/23 04:42:42;;;;;;;6.70;3.40;;;13.90;71.90;;;;;;1989124;28;20167;-74
2021/12/23 04:43:42;;;;;;;5.80;3.10;;;13.90;71.70;;;;;;1988769;28;20650;-74
2021/12/23 04:44:40;;;;;;;6.15;4.25;;;14.00;72.00;;;;;;1989010;28;20166;-74
2021/12/23 04:45:39;;;;;;;3.37;2.83;;;13.80;71.70;;;;;;1989039;28;20178;-75
2021/12/23 04:46:37;;;;;;;5.50;3.47;;;13.80;71.80;;;;;;1988942;28;20190;-74
2021/12/23 04:47:37;;;;;;;4.73;3.67;;;13.80;71.50;;;;;;1989128;28;20166;-74
2021/12/23 04:48:35;;;;;;;5.47;3.70;;;13.70;71.50;;;;;;1988352;28;20199;-74
2021/12/23 04:49:34;;;;;;;7.23;4.03;;;13.70;71.80;;;;;;1988485;28;20178;-73
2021/12/23 04:50:32;;;;;;;4.37;3.20;;;13.70;71.80;;;;;;1988958;28;20174;-75
2021/12/23 04:51:31;;;;;;;5.50;3.70;;;13.80;71.80;;;;;;1989079;28;20202;-75
2021/12/23 04:52:29;;;;;;;5.33;3.63;;;13.60;71.60;;;;;;1988998;28;20175;-74
2021/12/23 04:53:28;;;;;;;6.87;3.63;;;13.60;71.80;;;;;;1989036;28;20523;-75
2021/12/23 04:54:28;;;;;;;6.03;3.40;;;13.60;71.70;;;;;;1988257;28;20229;-75
2021/12/23 04:55:28;;;;;;;4.90;3.53;;;13.60;71.90;;;;;;1988476;28;20186;-74
2021/12/23 04:56:27;;;;;;;4.80;3.55;;;13.60;71.80;;;;;;1988203;28;20727;-74
2021/12/23 04:57:26;;;;;;;6.07;3.70;;;13.90;72.40;;;;;;1988454;28;20174;-74
2021/12/23 04:58:24;;;;;;;5.30;4.10;;;13.80;72.20;;;;;;1989106;28;20209;-73
2021/12/23 04:59:23;;;;;;;8.70;4.50;;;13.60;71.70;;;;;;1989006;28;20757;-75
2021/12/23 05:00:22;;;;;;;4.83;3.53;;;13.60;72.10;;;;;;1988952;28;20179;-74
2021/12/23 05:01:27;;;;;;;4.03;3.60;;;13.60;72.00;;;;;;1989000;28;20209;-74
2021/12/23 05:02:26;;;;;;;7.20;4.22;;;13.60;72.00;;;;;;1988385;28;20162;-74
2021/12/23 05:03:25;;;;;;;5.43;3.40;;;13.60;72.00;;;;;;1988418;28;20183;-74
2021/12/23 05:04:23;;;;;;;5.50;3.40;;;13.60;71.90;;;;;;1988997;28;20181;-74
2021/12/23 05:05:22;;;;;;;4.40;2.90;;;13.70;72.10;;;;;;1988924;28;20186;-75
2021/12/23 05:06:20;;;;;;;5.40;3.37;;;13.70;72.70;;;;;;1988933;28;20190;-74
2021/12/23 05:07:19;;;;;;;4.23;3.43;;;13.70;72.00;;;;;;1988993;28;20630;-74
2021/12/23 05:08:19;;;;;;;6.80;3.65;;;13.70;72.00;;;;;;1988886;28;20181;-74
2021/12/23 05:09:17;;;;;;;4.65;3.60;;;13.70;72.20;;;;;;1988935;28;20186;-75
2021/12/23 05:10:16;;;;;;;5.33;3.17;;;13.70;72.20;;;;;;1988950;28;20213;-74
2021/12/23 05:11:16;;;;;;;4.70;3.20;;;13.70;72.40;;;;;;1989191;28;20608;-75
2021/12/23 05:12:15;;;;;;;4.80;3.85;;;13.70;71.90;;;;;;1988651;28;20422;-74
2021/12/23 05:13:14;;;;;;;6.27;3.60;;;13.70;72.20;;;;;;1988514;28;20686;-74
2021/12/23 05:14:12;;;;;;;4.43;3.20;;;13.70;72.20;;;;;;1988918;28;20183;-74
2021/12/23 05:15:16;;;;;;;5.30;3.70;;;13.80;72.40;;;;;;1989065;28;20445;-75
2021/12/23 05:16:16;;;;;;;5.53;4.35;;;13.70;71.90;;;;;;1988945;28;20517;-74
2021/12/23 05:17:15;;;;;;;6.72;4.28;;;13.80;72.10;;;;;;1988272;28;20190;-74